createdAt,value
2023-03-01T00:01:08.011Z,27.20
2023-03-01T00:03:35.293Z,28.73
2023-03-01T00:06:02.769Z,27.83
2023-03-01T00:08:31.118Z,28.17
2023-03-01T00:11:05.318Z,29.57
2023-03-01T00:13:32.348Z,29.57
2023-03-01T00:15:59.245Z,28.17
2023-03-01T00:18:26.316Z,25.67
2023-03-01T00:20:54.652Z,29.13
2023-03-01T00:23:22.256Z,29.50
2023-03-01T00:25:50.339Z,29.43
2023-03-01T00:28:17.553Z,30.83
2023-03-01T00:30:44.689Z,29.47
2023-03-01T00:33:11.576Z,24.07
2023-03-01T00:35:39.096Z,24.33
2023-03-01T00:38:06.248Z,30.77
2023-03-01T00:40:35.684Z,35.67
2023-03-01T00:43:03.315Z,30.30
2023-03-01T00:45:31.962Z,27.33
2023-03-01T00:47:59.213Z,30.50
2023-03-01T00:50:26.686Z,27.73
2023-03-01T00:52:55.093Z,27.13
2023-03-01T00:55:22.679Z,31.37
2023-03-01T00:57:49.720Z,28.67
2023-03-01T01:00:17.203Z,28.83
2023-03-01T01:02:43.903Z,28.90
2023-03-01T01:05:11.706Z,30.30
2023-03-01T01:07:38.870Z,27.17
2023-03-01T01:10:06.530Z,27.37
2023-03-01T01:12:33.974Z,28.80
2023-03-01T01:15:00.672Z,32.20
2023-03-01T01:17:27.670Z,30.03
2023-03-01T01:19:54.416Z,32.23
2023-03-01T01:22:21.105Z,31.87
2023-03-01T01:24:47.854Z,29.33
2023-03-01T01:27:14.584Z,30.73
2023-03-01T01:29:43.114Z,28.13
2023-03-01T01:32:09.925Z,31.07
2023-03-01T01:34:37.118Z,27.50
2023-03-01T01:37:04.318Z,34.80
2023-03-01T01:39:31.072Z,28.77
2023-03-01T01:41:58.184Z,28.27
2023-03-01T01:44:28.344Z,28.80
2023-03-01T01:47:05.058Z,32.07
2023-03-01T01:49:42.100Z,27.60
2023-03-01T01:52:12.313Z,30.17
2023-03-01T01:54:47.991Z,32.90
2023-03-01T01:57:20.859Z,30.03
2023-03-01T01:59:53.468Z,27.30
2023-03-01T02:02:21.309Z,31.83
2023-03-01T02:04:51.791Z,28.70
2023-03-01T02:07:22.625Z,31.00
2023-03-01T02:09:53.394Z,29.17
2023-03-01T02:12:24.996Z,27.77
2023-03-01T02:14:51.927Z,30.90
2023-03-01T02:17:19.879Z,30.70
2023-03-01T02:20:17.752Z,26.57
2023-03-01T02:22:45.930Z,33.47
2023-03-01T02:25:41.119Z,31.23
2023-03-01T02:28:17.046Z,26.70
2023-03-01T02:31:04.610Z,32.60
2023-03-01T02:33:34.042Z,27.63
2023-03-01T02:36:04.964Z,29.67
2023-03-01T02:38:33.057Z,29.53
2023-03-01T02:41:01.645Z,28.77
2023-03-01T02:43:32.525Z,31.93
2023-03-01T02:46:04.780Z,28.30
2023-03-01T02:48:45.536Z,26.13
2023-03-01T02:51:29.015Z,30.60
2023-03-01T02:54:17.478Z,28.17
2023-03-01T02:56:49.871Z,27.83
2023-03-01T02:59:22.269Z,31.13
2023-03-01T03:01:49.444Z,28.87
2023-03-01T03:04:21.894Z,32.73
2023-03-01T03:06:52.060Z,34.40
2023-03-01T03:09:19.556Z,28.47
2023-03-01T03:11:47.046Z,29.70
2023-03-01T03:14:16.974Z,35.43
2023-03-01T03:16:49.145Z,31.33
2023-03-01T03:19:17.684Z,27.20
2023-03-01T03:21:44.904Z,28.93
2023-03-01T03:24:11.643Z,30.63
2023-03-01T03:26:38.519Z,30.03
2023-03-01T03:29:05.431Z,32.77
2023-03-01T03:31:32.160Z,33.70
2023-03-01T03:34:00.108Z,28.57
2023-03-01T03:36:27.013Z,30.83
2023-03-01T03:38:54.017Z,29.50
2023-03-01T03:41:20.794Z,27.83
2023-03-01T03:43:47.556Z,29.00
2023-03-01T03:46:14.809Z,29.97
2023-03-01T03:48:44.934Z,32.10
2023-03-01T03:51:14.539Z,32.33
2023-03-01T03:53:41.934Z,30.00
2023-03-01T03:56:09.259Z,27.87
2023-03-01T03:58:36.725Z,28.90
2023-03-01T04:01:04.318Z,28.07
2023-03-01T04:03:33.159Z,34.67
2023-03-01T04:06:01.336Z,31.20
2023-03-01T04:08:29.597Z,31.80
2023-03-01T04:11:22.175Z,31.43
2023-03-01T04:13:49.519Z,36.37
2023-03-01T04:16:16.606Z,27.07
2023-03-01T04:18:43.773Z,29.63
2023-03-01T04:21:12.264Z,35.00
2023-03-01T04:23:39.794Z,29.40
2023-03-01T04:26:06.444Z,32.53
2023-03-01T04:28:37.040Z,32.13
2023-03-01T04:31:24.097Z,32.37
2023-03-01T04:33:53.725Z,33.67
2023-03-01T04:36:23.717Z,33.33
2023-03-01T04:38:51.306Z,33.23
2023-03-01T04:41:19.610Z,31.73
2023-03-01T04:43:46.728Z,28.73
2023-03-01T04:46:15.994Z,29.20
2023-03-01T04:48:45.371Z,29.80
2023-03-01T04:51:15.775Z,28.57
2023-03-01T04:53:44.166Z,32.30
2023-03-01T04:56:11.898Z,29.17
2023-03-01T04:58:39.043Z,33.93
2023-03-01T05:01:19.894Z,33.73
2023-03-01T05:03:49.494Z,34.27
2023-03-01T05:06:17.872Z,31.00
2023-03-01T05:08:45.443Z,32.97
2023-03-01T05:11:13.629Z,34.73
2023-03-01T05:13:41.227Z,31.10
2023-03-01T05:16:13.238Z,34.07
2023-03-01T05:18:41.800Z,33.83
2023-03-01T05:21:11.617Z,33.53
2023-03-01T05:23:39.050Z,33.07
2023-03-01T05:26:09.440Z,32.07
2023-03-01T05:28:38.968Z,34.63
2023-03-01T05:31:10.620Z,32.23
2023-03-01T05:33:39.163Z,34.13
2023-03-01T05:36:08.262Z,31.93
2023-03-01T05:38:35.190Z,37.97
2023-03-01T05:41:02.024Z,26.70
2023-03-01T05:43:34.929Z,31.60
2023-03-01T05:46:02.195Z,33.03
2023-03-01T05:48:30.649Z,26.33
2023-03-01T05:51:01.692Z,30.77
2023-03-01T05:53:28.364Z,33.93
2023-03-01T05:55:55.274Z,31.63
2023-03-01T05:58:22.734Z,31.57
2023-03-01T06:00:50.345Z,29.10
2023-03-01T06:03:18.655Z,30.70
2023-03-01T06:05:45.994Z,37.73
2023-03-01T06:08:13.320Z,36.57
2023-03-01T06:10:40.652Z,31.47
2023-03-01T06:13:07.732Z,30.67
2023-03-01T06:15:34.658Z,31.67
2023-03-01T06:18:01.404Z,34.40
2023-03-01T06:20:29.783Z,34.67
2023-03-01T06:22:56.890Z,36.83
2023-03-01T06:25:26.210Z,35.27
2023-03-01T06:27:55.982Z,35.97
2023-03-01T06:30:24.660Z,32.63
2023-03-01T06:32:51.412Z,29.03
2023-03-01T06:35:19.812Z,30.93
2023-03-01T06:37:48.163Z,33.37
2023-03-01T06:40:15.442Z,33.43
2023-03-01T06:42:43.655Z,34.63
2023-03-01T06:45:11.154Z,41.77
2023-03-01T06:47:37.820Z,34.10
2023-03-01T06:50:04.975Z,36.53
2023-03-01T06:52:31.850Z,34.03
2023-03-01T06:54:58.684Z,35.73
2023-03-01T06:57:25.964Z,33.23
2023-03-01T06:59:52.718Z,30.27
2023-03-01T07:02:19.544Z,31.03
2023-03-01T07:04:46.982Z,41.87
2023-03-01T07:07:13.918Z,36.00
2023-03-01T07:09:40.601Z,34.90
2023-03-01T07:12:08.981Z,39.60
2023-03-01T07:14:35.710Z,32.83
2023-03-01T07:17:02.562Z,30.07
2023-03-01T07:19:29.384Z,32.57
2023-03-01T07:21:56.971Z,33.23
2023-03-01T07:24:24.268Z,31.93
2023-03-01T07:26:52.497Z,33.33
2023-03-01T07:29:19.503Z,35.87
2023-03-01T07:31:46.926Z,30.03
2023-03-01T07:34:13.913Z,30.00
2023-03-01T07:36:44.271Z,37.57
2023-03-01T07:39:12.930Z,30.77
2023-03-01T07:41:40.071Z,29.20
2023-03-01T07:44:06.801Z,38.67
2023-03-01T07:46:33.694Z,34.40
2023-03-01T07:49:01.128Z,28.83
2023-03-01T07:51:28.045Z,36.03
2023-03-01T07:53:54.917Z,35.37
2023-03-01T07:56:23.086Z,26.30
2023-03-01T07:58:51.199Z,30.60
2023-03-01T08:01:21.029Z,30.87
2023-03-01T08:03:47.763Z,29.97
2023-03-01T08:06:18.274Z,35.63
2023-03-01T08:08:46.348Z,30.83
2023-03-01T08:11:16.227Z,32.53
2023-03-01T08:13:44.375Z,33.67
2023-03-01T08:16:14.104Z,29.37
2023-03-01T08:18:41.939Z,33.90
2023-03-01T08:21:12.119Z,32.80
2023-03-01T08:23:40.973Z,32.67
2023-03-01T08:26:19.525Z,31.47
2023-03-01T08:28:47.554Z,37.60
2023-03-01T08:31:16.565Z,35.20
2023-03-01T08:33:43.713Z,35.20
2023-03-01T08:36:10.823Z,32.47
2023-03-01T08:38:37.592Z,32.00
2023-03-01T08:41:04.949Z,28.63
2023-03-01T08:43:31.861Z,38.63
2023-03-01T08:45:58.910Z,35.20
2023-03-01T08:48:26.436Z,36.97
2023-03-01T08:50:53.189Z,32.77
2023-03-01T08:53:19.961Z,24.90
2023-03-01T08:55:46.857Z,39.77
2023-03-01T08:58:14.019Z,33.33
2023-03-01T09:00:41.238Z,40.23
2023-03-01T09:03:08.177Z,34.97
2023-03-01T09:05:35.578Z,32.30
2023-03-01T09:08:02.785Z,37.73
2023-03-01T09:10:29.797Z,30.03
2023-03-01T09:12:56.768Z,29.53
2023-03-01T09:15:23.602Z,38.20
2023-03-01T09:17:50.305Z,34.57
2023-03-01T09:20:17.845Z,31.90
2023-03-01T09:22:45.328Z,35.00
2023-03-01T09:25:12.165Z,34.13
2023-03-01T09:27:39.311Z,30.43
2023-03-01T09:30:06.951Z,31.00
2023-03-01T09:32:33.972Z,31.37
2023-03-01T09:35:05.878Z,33.70
2023-03-01T09:37:34.549Z,32.60
2023-03-01T09:40:02.392Z,31.37
2023-03-01T09:42:32.576Z,39.00
2023-03-01T09:45:02.262Z,35.67
2023-03-01T09:47:32.255Z,34.67
2023-03-01T09:50:34.547Z,35.60
2023-03-01T09:53:11.848Z,32.40
2023-03-01T09:55:44.239Z,39.93
2023-03-01T09:58:36.253Z,34.17
2023-03-01T10:01:32.838Z,37.27
2023-03-01T10:04:02.744Z,36.63
2023-03-01T10:06:34.851Z,32.80
2023-03-01T10:09:14.694Z,35.17
2023-03-01T10:11:57.522Z,33.60
2023-03-01T10:14:50.793Z,37.20
2023-03-01T10:17:41.097Z,40.33
2023-03-01T10:20:26.019Z,37.03
2023-03-01T10:22:53.694Z,34.33
2023-03-01T10:25:44.683Z,41.87
2023-03-01T10:28:17.864Z,36.43
2023-03-01T10:30:46.360Z,36.33
2023-03-01T10:33:23.288Z,33.97
2023-03-01T10:35:50.477Z,33.00
2023-03-01T10:38:18.917Z,35.40
2023-03-01T10:41:02.916Z,36.93
2023-03-01T10:43:44.833Z,35.97
2023-03-01T10:46:43.745Z,35.40
2023-03-01T10:49:20.496Z,38.87
2023-03-01T10:51:51.221Z,35.13
2023-03-01T10:54:30.380Z,32.07
2023-03-01T10:56:59.790Z,31.83
2023-03-01T10:59:38.840Z,34.90
2023-03-01T11:02:25.136Z,37.97
2023-03-01T11:05:20.661Z,32.57
2023-03-01T11:07:59.825Z,29.00
2023-03-01T11:10:36.202Z,31.40
2023-03-01T11:13:16.903Z,31.80
2023-03-01T11:15:59.038Z,31.67
2023-03-01T11:18:46.144Z,33.07
2023-03-01T11:21:16.889Z,31.17
2023-03-01T11:23:47.028Z,29.27
2023-03-01T11:26:16.747Z,30.47
2023-03-01T11:28:46.517Z,30.87
2023-03-01T11:31:15.222Z,35.03
2023-03-01T11:34:00.678Z,31.63
2023-03-01T11:36:54.726Z,32.97
2023-03-01T11:40:06.112Z,30.63
2023-03-01T11:42:48.188Z,31.00
2023-03-01T11:45:15.392Z,31.10
2023-03-01T11:47:58.052Z,29.90
2023-03-01T11:50:42.244Z,31.30
2023-03-01T11:53:34.220Z,27.43
2023-03-01T11:56:10.164Z,31.17
2023-03-01T11:59:18.737Z,28.07
2023-03-01T12:01:54.677Z,31.03
2023-03-01T12:04:48.739Z,29.90
2023-03-01T12:07:21.898Z,33.33
2023-03-01T12:10:21.500Z,32.80
2023-03-01T12:13:03.937Z,22.00
2023-03-01T12:15:49.989Z,29.63
2023-03-01T12:19:01.028Z,34.77
2023-03-01T12:21:49.843Z,25.50
2023-03-01T12:24:28.566Z,27.03
2023-03-01T12:27:04.358Z,29.77
2023-03-01T12:29:50.556Z,27.10
2023-03-01T12:32:36.418Z,30.17
2023-03-01T12:35:32.460Z,26.03
2023-03-01T12:38:14.809Z,32.70
2023-03-01T12:41:25.480Z,32.40
2023-03-01T12:44:02.582Z,33.87
2023-03-01T12:46:35.846Z,21.17
2023-03-01T12:49:17.591Z,29.20
2023-03-01T12:52:04.076Z,29.97
2023-03-01T12:54:34.506Z,25.23
2023-03-01T12:57:10.991Z,23.63
2023-03-01T12:59:59.471Z,28.23
2023-03-01T13:02:39.689Z,23.47
2023-03-01T13:05:31.519Z,27.23
2023-03-01T13:08:11.804Z,28.93
2023-03-01T13:10:49.690Z,28.90
2023-03-01T13:13:23.090Z,28.50
2023-03-01T13:15:54.692Z,34.03
2023-03-01T13:18:23.108Z,30.80
2023-03-01T13:20:49.776Z,30.13
2023-03-01T13:23:22.794Z,35.63
2023-03-01T13:26:01.488Z,20.07
2023-03-01T13:28:49.929Z,29.70
2023-03-01T13:31:16.820Z,28.83
2023-03-01T13:33:48.637Z,27.87
2023-03-01T13:36:31.385Z,32.47
2023-03-01T13:39:01.040Z,30.23
2023-03-01T13:41:40.237Z,31.43
2023-03-01T13:44:33.102Z,30.00
2023-03-01T13:47:18.463Z,31.77
2023-03-01T13:50:04.589Z,28.20
2023-03-01T13:53:00.432Z,30.60
2023-03-01T13:55:37.556Z,30.60
2023-03-01T13:58:16.401Z,25.33
2023-03-01T14:00:43.509Z,29.33
2023-03-01T14:03:21.095Z,25.30
2023-03-01T14:06:16.204Z,29.43
2023-03-01T14:08:44.938Z,30.07
2023-03-01T14:11:26.447Z,26.50
2023-03-01T14:14:13.510Z,29.60
2023-03-01T14:17:17.443Z,28.87
2023-03-01T14:19:47.855Z,30.03
2023-03-01T14:22:18.488Z,31.30
2023-03-01T14:24:51.450Z,34.00
2023-03-01T14:27:18.740Z,27.60
2023-03-01T14:29:56.439Z,30.10
2023-03-01T14:32:27.270Z,33.23
2023-03-01T14:34:55.318Z,34.50
2023-03-01T14:37:29.906Z,31.87
2023-03-01T14:39:57.768Z,32.30
2023-03-01T14:42:28.341Z,34.00
2023-03-01T14:44:58.037Z,34.70
2023-03-01T14:47:36.810Z,31.27
2023-03-01T14:50:27.336Z,30.53
2023-03-01T14:52:58.234Z,28.40
2023-03-01T14:55:35.891Z,33.87
2023-03-01T14:58:07.560Z,36.33
2023-03-01T15:00:36.594Z,30.03
2023-03-01T15:03:18.828Z,34.00
2023-03-01T15:05:45.832Z,37.77
2023-03-01T15:08:22.434Z,33.17
2023-03-01T15:11:20.553Z,37.87
2023-03-01T15:13:48.303Z,39.17
2023-03-01T15:16:18.317Z,44.80
2023-03-01T15:18:52.641Z,31.50
2023-03-01T15:21:34.216Z,28.67
2023-03-01T15:24:05.971Z,32.33
2023-03-01T15:26:38.731Z,33.20
2023-03-01T15:29:05.981Z,31.77
2023-03-01T15:31:39.451Z,33.17
2023-03-01T15:34:31.419Z,33.00
2023-03-01T15:37:01.645Z,34.80
2023-03-01T15:39:38.340Z,32.37
2023-03-01T15:42:12.455Z,34.80
2023-03-01T15:44:48.356Z,36.03
2023-03-01T15:47:28.119Z,35.93
2023-03-01T15:49:56.434Z,35.30
2023-03-01T15:52:31.814Z,41.80
2023-03-01T15:55:04.912Z,40.80
2023-03-01T15:57:31.870Z,49.63
2023-03-01T15:59:58.632Z,42.00
2023-03-01T16:02:25.614Z,64.70
2023-03-01T16:04:52.846Z,54.90
2023-03-01T16:07:19.737Z,71.77
2023-03-01T16:09:47.140Z,73.13
2023-03-01T16:12:18.301Z,63.60
2023-03-01T16:14:44.995Z,46.53
2023-03-01T16:17:11.692Z,36.23
2023-03-01T16:19:39.106Z,36.57
2023-03-01T16:22:06.535Z,37.07
2023-03-01T16:24:33.750Z,38.60
2023-03-01T16:27:00.485Z,36.80
2023-03-01T16:29:27.286Z,35.00
2023-03-01T16:31:54.225Z,36.57
2023-03-01T16:34:22.855Z,35.43
2023-03-01T16:36:50.160Z,35.07
2023-03-01T16:39:17.613Z,39.63
2023-03-01T16:41:44.539Z,33.60
2023-03-01T16:44:11.520Z,42.83
2023-03-01T16:46:38.348Z,41.17
2023-03-01T16:49:05.118Z,42.30
2023-03-01T16:51:33.943Z,36.83
2023-03-01T16:54:00.738Z,42.30
2023-03-01T16:56:27.587Z,39.87
2023-03-01T16:58:54.465Z,38.97
2023-03-01T17:01:25.460Z,37.67
2023-03-01T17:03:53.000Z,43.97
2023-03-01T17:06:24.584Z,63.30
2023-03-01T17:08:52.039Z,46.90
2023-03-01T17:11:20.439Z,41.77
2023-03-01T17:13:48.866Z,42.53
2023-03-01T17:16:18.904Z,38.73
2023-03-01T17:18:46.925Z,43.63
2023-03-01T17:21:14.393Z,40.53
2023-03-01T17:23:43.721Z,41.30
2023-03-01T17:26:10.597Z,43.60
2023-03-01T17:28:38.918Z,38.97
2023-03-01T17:31:07.360Z,40.73
2023-03-01T17:33:34.435Z,40.67
2023-03-01T17:36:02.034Z,41.03
2023-03-01T17:38:28.842Z,41.83
2023-03-01T17:40:55.570Z,43.77
2023-03-01T17:43:22.572Z,40.90
2023-03-01T17:45:52.464Z,44.00
2023-03-01T17:48:19.521Z,41.53
2023-03-01T17:50:47.230Z,43.17
2023-03-01T17:53:14.442Z,44.47
2023-03-01T17:55:43.300Z,42.47
2023-03-01T17:58:13.032Z,41.27
2023-03-01T18:00:40.349Z,45.83
2023-03-01T18:03:07.756Z,48.20
2023-03-01T18:05:36.652Z,46.27
2023-03-01T18:08:04.141Z,45.50
2023-03-01T18:10:32.606Z,38.33
2023-03-01T18:12:59.690Z,32.37
2023-03-01T18:15:26.475Z,37.97
2023-03-01T18:17:53.827Z,35.13
2023-03-01T18:20:21.170Z,35.90
2023-03-01T18:22:48.930Z,34.47
2023-03-01T18:25:15.689Z,38.37
2023-03-01T18:27:42.540Z,48.40
2023-03-01T18:30:11.635Z,33.13
2023-03-01T18:32:39.806Z,29.53
2023-03-01T18:35:07.982Z,29.07
2023-03-01T18:37:34.993Z,28.20
2023-03-01T18:40:01.927Z,32.97
2023-03-01T18:42:28.663Z,32.27
2023-03-01T18:44:55.418Z,32.93
2023-03-01T18:47:22.966Z,33.20
2023-03-01T18:49:49.979Z,33.47
2023-03-01T18:52:16.793Z,35.17
2023-03-01T18:54:43.577Z,38.90
2023-03-01T18:57:10.289Z,40.07
2023-03-01T18:59:38.054Z,42.63
2023-03-01T19:02:05.163Z,43.63
2023-03-01T19:04:32.082Z,35.50
2023-03-01T19:07:02.097Z,38.27
2023-03-01T19:09:29.193Z,35.27
2023-03-01T19:11:58.888Z,34.23
2023-03-01T19:14:25.836Z,36.20
2023-03-01T19:16:53.375Z,37.20
2023-03-01T19:19:20.841Z,37.23
2023-03-01T19:21:59.294Z,34.03
2023-03-01T19:24:31.814Z,32.83
2023-03-01T19:26:58.593Z,40.63
2023-03-01T19:29:25.436Z,36.00
2023-03-01T19:31:52.310Z,46.03
2023-03-01T19:34:19.375Z,40.87
2023-03-01T19:36:48.240Z,44.23
2023-03-01T19:39:14.959Z,41.87
2023-03-01T19:41:42.625Z,41.70
2023-03-01T19:44:10.706Z,40.70
2023-03-01T19:46:38.858Z,37.70
2023-03-01T19:49:06.077Z,38.43
2023-03-01T19:51:36.123Z,41.00
2023-03-01T19:54:04.614Z,35.80
2023-03-01T19:56:31.923Z,33.60
2023-03-01T19:59:00.671Z,37.93
2023-03-01T20:01:29.851Z,32.67
2023-03-01T20:03:56.676Z,36.07
2023-03-01T20:06:25.637Z,36.60
2023-03-01T20:08:52.788Z,35.47
2023-03-01T20:11:19.944Z,41.50
2023-03-01T20:13:47.473Z,33.80
2023-03-01T20:16:17.403Z,35.60
2023-03-01T20:18:44.411Z,31.07
2023-03-01T20:21:22.739Z,35.33
2023-03-01T20:23:50.710Z,35.67
2023-03-01T20:26:20.064Z,40.17
2023-03-01T20:28:48.640Z,40.87
2023-03-01T20:31:17.936Z,40.30
2023-03-01T20:33:44.967Z,47.87
2023-03-01T20:36:12.194Z,45.67
2023-03-01T20:38:39.313Z,49.07
2023-03-01T20:41:09.404Z,44.07
2023-03-01T20:43:37.611Z,47.40
2023-03-01T20:46:11.377Z,44.70
2023-03-01T20:48:39.332Z,39.63
2023-03-01T20:51:07.691Z,37.33
2023-03-01T20:53:35.179Z,50.80
2023-03-01T20:56:04.139Z,58.50
2023-03-01T20:58:33.000Z,50.53
2023-03-01T21:00:59.962Z,57.03
2023-03-01T21:03:26.963Z,64.63
2023-03-01T21:06:02.457Z,57.90
2023-03-01T21:08:30.537Z,55.63
2023-03-01T21:10:57.988Z,50.33
2023-03-01T21:13:26.484Z,47.83
2023-03-01T21:16:03.362Z,36.03
2023-03-01T21:18:31.595Z,35.47
2023-03-01T21:21:04.908Z,28.03
2023-03-01T21:23:34.492Z,27.10
2023-03-01T21:26:05.692Z,24.77
2023-03-01T21:28:34.391Z,29.03
2023-03-01T21:31:10.917Z,27.60
2023-03-01T21:33:39.950Z,30.50
2023-03-01T21:36:09.995Z,32.87
2023-03-01T21:38:42.009Z,33.57
2023-03-01T21:41:11.521Z,32.43
2023-03-01T21:43:40.138Z,37.07
2023-03-01T21:46:11.015Z,36.37
2023-03-01T21:48:39.905Z,34.57
2023-03-01T21:51:08.288Z,43.20
2023-03-01T21:53:35.989Z,44.33
2023-03-01T21:56:02.884Z,45.10
2023-03-01T21:58:31.563Z,46.30
2023-03-01T22:01:07.144Z,42.10
2023-03-01T22:03:33.912Z,42.73
2023-03-01T22:06:05.042Z,48.67
2023-03-01T22:08:31.764Z,54.70
2023-03-01T22:11:01.831Z,53.60
2023-03-01T22:13:28.572Z,53.53
2023-03-01T22:15:55.278Z,49.63
2023-03-01T22:18:22.594Z,50.63
2023-03-01T22:20:49.354Z,50.33
2023-03-01T22:23:16.233Z,55.73
2023-03-01T22:25:42.997Z,43.93
2023-03-01T22:28:10.202Z,38.70
2023-03-01T22:30:37.170Z,48.60
2023-03-01T22:33:04.315Z,45.57
2023-03-01T22:35:31.199Z,42.80
2023-03-01T22:37:57.947Z,42.50
2023-03-01T22:40:25.520Z,42.53
2023-03-01T22:42:52.505Z,46.43
2023-03-01T22:45:19.233Z,39.77
2023-03-01T22:47:45.915Z,47.20
2023-03-01T22:50:14.965Z,44.80
2023-03-01T22:52:41.862Z,41.27
2023-03-01T22:55:09.157Z,38.43
2023-03-01T22:57:36.041Z,44.27
2023-03-01T23:00:13.090Z,42.73
2023-03-01T23:02:43.538Z,43.33
2023-03-01T23:05:11.005Z,41.13
2023-03-01T23:07:37.906Z,40.13
2023-03-01T23:10:06.246Z,45.57
2023-03-01T23:12:33.396Z,40.73
2023-03-01T23:15:00.174Z,44.47
2023-03-01T23:17:27.059Z,46.50
2023-03-01T23:19:53.898Z,41.40
2023-03-01T23:22:21.002Z,42.90
2023-03-01T23:24:48.884Z,40.17
2023-03-01T23:27:19.264Z,43.50
2023-03-01T23:29:45.981Z,39.47
2023-03-01T23:32:13.394Z,37.93
2023-03-01T23:34:43.791Z,43.43
2023-03-01T23:37:10.976Z,42.73
2023-03-01T23:39:38.598Z,37.23
2023-03-01T23:42:05.789Z,36.50
2023-03-01T23:44:32.855Z,39.20
2023-03-01T23:46:59.575Z,41.10
2023-03-01T23:49:27.881Z,41.30
2023-03-01T23:51:54.699Z,41.43
2023-03-01T23:54:23.692Z,38.07
2023-03-01T23:56:50.998Z,45.30
2023-03-01T23:59:22.063Z,42.20
